Time;durP1;ratioP1;P1;durP2;ratioP2;P2;SDS_P1;SDS_P2;PMS_P1;PMS_P2;Temp;Humidity;BMP_temperature;BMP_pressure;BME280_temperature;BME280_humidity;BME280_pressure;Samples;Min_cycle;Max_cycle;Signal;HPM_P1;HPM_P2
2021/04/18 00:01:33;;;;;;;12.43;7.72;;;10.30;55.80;;;;;;4974486;28;20258;-65
2021/04/18 00:03:59;;;;;;;12.88;7.43;;;10.20;55.50;;;;;;4963729;28;20061;-64
2021/04/18 00:06:25;;;;;;;17.60;8.45;;;10.10;55.30;;;;;;4966627;28;20057;-64
2021/04/18 00:08:51;;;;;;;14.68;8.50;;;10.10;55.30;;;;;;4980905;28;20472;-65
2021/04/18 00:11:18;;;;;;;19.15;8.30;;;10.00;55.30;;;;;;4980772;28;20524;-64
2021/04/18 00:13:44;;;;;;;16.33;8.80;;;9.90;55.30;;;;;;4971649;28;20596;-65
2021/04/18 00:16:10;;;;;;;17.70;9.65;;;9.80;55.30;;;;;;4973133;28;20042;-64
2021/04/18 00:18:36;;;;;;;18.25;9.00;;;9.80;55.40;;;;;;4988992;28;20038;-65
2021/04/18 00:21:02;;;;;;;19.02;9.27;;;9.70;55.50;;;;;;4973519;28;24460;-65
2021/04/18 00:23:30;;;;;;;21.33;9.52;;;9.70;55.70;;;;;;4968761;28;20049;-66
2021/04/18 00:25:55;;;;;;;19.95;10.13;;;9.70;55.80;;;;;;4973326;28;20092;-64
2021/04/18 00:28:28;;;;;;;16.02;8.93;;;9.70;55.90;;;;;;4971123;28;20038;-65
2021/04/18 00:30:56;;;;;;;17.02;9.07;;;9.60;56.00;;;;;;4991064;28;20140;-64
2021/04/18 00:33:24;;;;;;;20.52;9.00;;;9.50;55.90;;;;;;4968249;28;20540;-64
2021/04/18 00:35:50;;;;;;;22.25;10.18;;;9.50;56.00;;;;;;4973471;28;20081;-64
2021/04/18 00:38:15;;;;;;;22.67;9.80;;;9.50;56.10;;;;;;4970531;28;20740;-64
2021/04/18 00:40:41;;;;;;;19.13;9.77;;;9.50;56.20;;;;;;4990319;28;20456;-64
2021/04/18 00:43:06;;;;;;;19.73;9.98;;;9.50;56.30;;;;;;4975205;28;20133;-64
2021/04/18 00:45:34;;;;;;;23.38;10.23;;;9.50;56.30;;;;;;4974098;28;20089;-65
2021/04/18 00:48:00;;;;;;;26.00;10.77;;;9.50;56.50;;;;;;4971013;28;20550;-64
2021/04/18 00:50:33;;;;;;;21.75;9.90;;;9.50;56.50;;;;;;4973926;28;20050;-64
2021/04/18 00:53:10;;;;;;;25.35;10.57;;;9.50;56.60;;;;;;4973233;28;20460;-65
2021/04/18 00:55:44;;;;;;;24.10;10.68;;;9.50;56.70;;;;;;4973192;28;20046;-64
2021/04/18 00:58:13;;;;;;;19.77;9.73;;;9.50;56.70;;;;;;4968128;28;20657;-64
2021/04/18 01:00:42;;;;;;;17.55;9.98;;;9.50;56.80;;;;;;4982576;28;20247;-65
2021/04/18 01:03:08;;;;;;;24.13;10.18;;;9.50;56.80;;;;;;4974243;28;20120;-64
2021/04/18 01:05:34;;;;;;;24.67;10.27;;;9.50;56.80;;;;;;4988714;28;20038;-64
2021/04/18 01:08:09;;;;;;;19.25;10.35;;;9.40;56.70;;;;;;4985026;28;20034;-65
2021/04/18 01:10:34;;;;;;;19.98;8.82;;;9.40;56.70;;;;;;4980370;28;20424;-64
2021/04/18 01:13:00;;;;;;;18.17;9.38;;;9.40;56.70;;;;;;4970006;28;20034;-64
2021/04/18 01:15:26;;;;;;;23.63;9.85;;;9.40;56.70;;;;;;4976677;28;20069;-64
2021/04/18 01:17:51;;;;;;;18.38;9.77;;;9.30;56.70;;;;;;4988157;28;20509;-64
2021/04/18 01:20:21;;;;;;;26.20;10.25;;;9.30;56.80;;;;;;4971973;28;20062;-65
2021/04/18 01:22:50;;;;;;;24.48;10.48;;;9.30;56.90;;;;;;4984129;28;20046;-64
2021/04/18 01:25:16;;;;;;;21.55;10.63;;;9.30;57.10;;;;;;4973745;28;20046;-64
2021/04/18 01:27:45;;;;;;;27.45;11.65;;;9.30;57.20;;;;;;4974969;28;20041;-64
2021/04/18 01:30:17;;;;;;;20.40;10.35;;;9.40;57.30;;;;;;4980644;28;20030;-64
2021/04/18 01:32:47;;;;;;;16.73;10.27;;;9.40;57.30;;;;;;4970393;28;20054;-64
2021/04/18 01:35:14;;;;;;;23.92;10.45;;;9.40;57.30;;;;;;4970505;28;20042;-65
2021/04/18 01:37:42;;;;;;;17.60;9.23;;;9.40;57.30;;;;;;4986696;28;20034;-64
2021/04/18 01:40:19;;;;;;;15.55;8.57;;;9.50;57.30;;;;;;4961930;28;20042;-65
2021/04/18 01:42:48;;;;;;;19.83;9.95;;;9.50;57.30;;;;;;4963165;28;20412;-64
2021/04/18 01:45:15;;;;;;;26.02;10.73;;;9.50;57.30;;;;;;4974590;28;20081;-64
2021/04/18 01:47:41;;;;;;;17.40;10.20;;;9.50;57.40;;;;;;4962858;28;20042;-64
2021/04/18 01:50:14;;;;;;;22.38;11.32;;;9.50;57.60;;;;;;4959941;28;21194;-65
2021/04/18 01:52:40;;;;;;;25.00;10.90;;;9.50;57.70;;;;;;4971186;28;20053;-65
2021/04/18 01:55:07;;;;;;;20.05;10.93;;;9.60;57.80;;;;;;4974366;28;20038;-64
2021/04/18 01:57:36;;;;;;;21.60;11.50;;;9.70;58.00;;;;;;4967603;28;20037;-64
2021/04/18 02:00:02;;;;;;;26.58;11.52;;;9.70;57.90;;;;;;4971920;28;20045;-64
2021/04/18 02:02:30;;;;;;;27.00;12.50;;;9.80;57.80;;;;;;4966923;28;20177;-65
2021/04/18 02:04:56;;;;;;;25.02;12.05;;;9.80;57.80;;;;;;4964550;28;20554;-64
2021/04/18 02:07:21;;;;;;;23.52;12.40;;;9.80;57.60;;;;;;4963309;28;20133;-64
2021/04/18 02:09:47;;;;;;;29.05;13.15;;;9.80;57.60;;;;;;4962552;28;20069;-65
2021/04/18 02:12:15;;;;;;;23.63;12.38;;;9.80;57.50;;;;;;4965410;28;23136;-64
2021/04/18 02:14:43;;;;;;;23.73;11.57;;;9.80;57.50;;;;;;4969463;28;20735;-64
2021/04/18 02:17:11;;;;;;;21.70;11.73;;;9.80;57.40;;;;;;4963145;28;20042;-65
2021/04/18 02:19:39;;;;;;;27.23;12.27;;;9.70;57.40;;;;;;4973864;28;20085;-64
2021/04/18 02:22:07;;;;;;;29.88;12.60;;;9.70;57.40;;;;;;4972764;28;20496;-65
2021/04/18 02:24:32;;;;;;;22.58;12.52;;;9.70;57.50;;;;;;4969473;28;21049;-65
2021/04/18 02:26:58;;;;;;;23.20;12.85;;;9.70;57.60;;;;;;4983748;28;20343;-64
2021/04/18 02:29:25;;;;;;;21.17;13.15;;;9.70;57.60;;;;;;4964175;28;20041;-65
2021/04/18 02:31:55;;;;;;;20.63;11.93;;;9.70;57.60;;;;;;4960574;28;20133;-65
2021/04/18 02:34:25;;;;;;;23.17;11.95;;;9.70;57.60;;;;;;4970283;28;20404;-64
2021/04/18 02:36:55;;;;;;;24.92;12.07;;;9.70;57.60;;;;;;4968503;28;20042;-64
2021/04/18 02:39:21;;;;;;;19.23;11.73;;;9.70;57.60;;;;;;4975015;28;20049;-64
2021/04/18 02:41:51;;;;;;;20.02;11.68;;;9.60;57.60;;;;;;4970026;28;20038;-64
2021/04/18 02:44:17;;;;;;;19.17;11.55;;;9.60;57.60;;;;;;4972804;28;20069;-64
2021/04/18 02:46:45;;;;;;;25.13;12.73;;;9.60;57.60;;;;;;4967383;28;20512;-64
2021/04/18 02:49:12;;;;;;;23.90;11.63;;;9.60;57.60;;;;;;4968911;28;20085;-65
2021/04/18 02:51:38;;;;;;;21.80;11.10;;;9.60;57.60;;;;;;4960873;28;20034;-65
2021/04/18 02:54:04;;;;;;;20.08;11.27;;;9.60;57.60;;;;;;4964574;28;20053;-64
2021/04/18 02:56:29;;;;;;;20.55;11.57;;;9.60;57.60;;;;;;4973362;28;20042;-64
2021/04/18 02:58:57;;;;;;;23.95;11.70;;;9.60;57.60;;;;;;4987623;28;20047;-64
2021/04/18 03:01:25;;;;;;;24.50;13.07;;;9.60;57.60;;;;;;4964336;28;20042;-66
2021/04/18 03:03:51;;;;;;;20.90;12.32;;;9.60;57.80;;;;;;4957788;28;20551;-65
2021/04/18 03:06:16;;;;;;;28.05;12.80;;;9.60;57.90;;;;;;4976612;28;20603;-64
2021/04/18 03:08:42;;;;;;;19.50;11.80;;;9.70;58.00;;;;;;4984808;28;20077;-64
2021/04/18 03:11:09;;;;;;;23.45;12.60;;;9.70;58.00;;;;;;4964861;28;20070;-65
2021/04/18 03:13:37;;;;;;;25.52;12.52;;;9.70;57.90;;;;;;4963002;28;20108;-64
2021/04/18 03:16:03;;;;;;;24.02;12.55;;;9.80;57.90;;;;;;4968522;28;20066;-64
2021/04/18 03:18:28;;;;;;;21.63;12.40;;;9.80;57.80;;;;;;4965999;28;20209;-64
2021/04/18 03:20:54;;;;;;;22.48;11.98;;;9.80;57.90;;;;;;4984206;28;20039;-66
2021/04/18 03:23:22;;;;;;;22.02;11.98;;;9.80;57.90;;;;;;4968685;28;20089;-64
2021/04/18 03:25:47;;;;;;;22.48;12.50;;;9.80;57.80;;;;;;4978384;28;20043;-64
2021/04/18 03:28:14;;;;;;;20.63;11.82;;;9.80;57.90;;;;;;4968328;28;20089;-64
2021/04/18 03:30:42;;;;;;;26.60;12.80;;;9.80;57.90;;;;;;4964853;28;20118;-64
2021/04/18 03:33:08;;;;;;;24.33;12.82;;;9.80;57.90;;;;;;4966040;28;20130;-64
2021/04/18 03:35:34;;;;;;;24.27;12.85;;;9.90;58.00;;;;;;4960480;28;20208;-65
2021/04/18 03:38:02;;;;;;;21.42;12.40;;;9.90;58.10;;;;;;4967616;28;20047;-65
2021/04/18 03:40:28;;;;;;;26.75;13.93;;;10.00;58.10;;;;;;4971538;28;20316;-65
2021/04/18 03:42:56;;;;;;;22.95;12.95;;;10.00;58.20;;;;;;4983860;28;20480;-65
2021/04/18 03:45:22;;;;;;;22.52;12.45;;;10.10;58.40;;;;;;4965836;28;20108;-65
2021/04/18 03:47:48;;;;;;;22.35;12.52;;;10.20;58.40;;;;;;4967583;28;20874;-65
2021/04/18 03:50:16;;;;;;;23.65;12.05;;;10.20;58.90;;;;;;4964698;28;20328;-65
2021/04/18 03:52:42;;;;;;;24.77;13.20;;;10.20;58.80;;;;;;4972568;28;20042;-66
2021/04/18 03:55:08;;;;;;;22.65;13.05;;;10.30;58.20;;;;;;4969651;28;20051;-64
2021/04/18 03:57:34;;;;;;;24.65;12.48;;;10.40;58.20;;;;;;4968361;28;20046;-65
2021/04/18 03:59:59;;;;;;;19.92;10.70;;;10.40;58.00;;;;;;4966249;28;20053;-64
2021/04/18 04:02:27;;;;;;;18.02;10.40;;;10.40;57.80;;;;;;4965955;28;20310;-65
2021/04/18 04:04:53;;;;;;;26.35;11.68;;;10.40;57.60;;;;;;4971407;28;20409;-65
2021/04/18 04:07:21;;;;;;;22.95;10.32;;;10.40;57.40;;;;;;4969285;28;20038;-64
2021/04/18 04:09:46;;;;;;;22.02;10.50;;;10.40;57.20;;;;;;4969180;28;20117;-65
2021/04/18 04:12:14;;;;;;;21.20;11.10;;;10.30;57.10;;;;;;4982182;28;20046;-65
2021/04/18 04:14:42;;;;;;;23.40;11.05;;;10.30;57.10;;;;;;4986209;28;20062;-64
2021/04/18 04:17:07;;;;;;;17.08;10.73;;;10.30;57.20;;;;;;4985185;28;20156;-65
2021/04/18 04:19:33;;;;;;;19.02;11.30;;;10.30;57.30;;;;;;4982076;28;20791;-65
2021/04/18 04:21:58;;;;;;;20.67;10.82;;;10.30;57.40;;;;;;4967603;28;20049;-64
2021/04/18 04:24:24;;;;;;;19.55;11.20;;;10.30;57.40;;;;;;4971143;28;20420;-65
2021/04/18 04:26:50;;;;;;;24.20;11.60;;;10.30;57.30;;;;;;4988759;28;20677;-65
2021/04/18 04:29:15;;;;;;;20.27;11.65;;;10.40;57.20;;;;;;4965652;28;20424;-64
2021/04/18 04:31:41;;;;;;;17.75;10.82;;;10.30;57.00;;;;;;4970097;28;20077;-65
2021/04/18 04:34:09;;;;;;;19.90;10.77;;;10.30;56.90;;;;;;4969237;28;20145;-65
2021/04/18 04:36:34;;;;;;;19.90;11.48;;;10.30;56.90;;;;;;4968211;28;20511;-64
2021/04/18 04:39:05;;;;;;;21.65;12.07;;;10.30;57.10;;;;;;4970349;28;20030;-65
2021/04/18 04:41:31;;;;;;;22.27;11.45;;;10.30;57.10;;;;;;4967279;28;20264;-66
2021/04/18 04:43:56;;;;;;;21.08;11.10;;;10.30;57.50;;;;;;4965625;28;20066;-64
2021/04/18 04:46:24;;;;;;;20.45;11.57;;;10.30;57.20;;;;;;4968445;28;20041;-64
2021/04/18 04:48:50;;;;;;;20.27;11.65;;;10.20;57.10;;;;;;4966874;28;20045;-65
2021/04/18 04:51:18;;;;;;;24.63;11.70;;;10.30;57.20;;;;;;4968599;28;20042;-65
2021/04/18 04:53:46;;;;;;;24.80;12.00;;;10.20;57.20;;;;;;4964643;28;20042;-65
2021/04/18 04:56:11;;;;;;;22.52;11.98;;;10.20;57.20;;;;;;4971575;28;20031;-64
2021/04/18 04:58:39;;;;;;;24.08;11.98;;;10.20;57.30;;;;;;4975614;28;20077;-65
2021/04/18 05:01:06;;;;;;;24.60;13.02;;;10.20;57.40;;;;;;4974775;28;20041;-65
2021/04/18 05:03:37;;;;;;;28.30;12.05;;;10.30;57.70;;;;;;4968189;28;20038;-65
2021/04/18 05:06:03;;;;;;;22.55;13.20;;;10.30;57.80;;;;;;4965348;28;20069;-65
2021/04/18 05:08:28;;;;;;;29.73;12.75;;;10.40;58.00;;;;;;4965946;28;20364;-65
2021/04/18 05:10:54;;;;;;;24.02;12.20;;;10.50;58.00;;;;;;4970558;28;20041;-65
2021/04/18 05:13:21;;;;;;;25.48;12.77;;;10.50;57.90;;;;;;4974284;28;20500;-65
2021/04/18 05:15:47;;;;;;;20.85;11.55;;;10.60;57.90;;;;;;4965105;28;20132;-65
2021/04/18 05:18:12;;;;;;;26.98;12.02;;;10.70;57.90;;;;;;4981715;28;20582;-65
2021/04/18 05:20:40;;;;;;;21.55;11.80;;;10.90;57.90;;;;;;4964893;28;20057;-65
2021/04/18 05:23:06;;;;;;;22.15;11.15;;;11.00;57.80;;;;;;4985190;28;20034;-65
2021/04/18 05:25:31;;;;;;;17.20;9.98;;;11.20;57.80;;;;;;4974039;28;20448;-65
2021/04/18 05:28:02;;;;;;;23.27;10.40;;;11.30;57.40;;;;;;4974746;28;20044;-65
2021/04/18 05:30:30;;;;;;;14.85;9.32;;;11.50;57.20;;;;;;4967168;28;20076;-65
2021/04/18 05:32:55;;;;;;;19.08;10.50;;;11.70;57.10;;;;;;4969553;28;20074;-65
2021/04/18 05:35:21;;;;;;;18.80;9.68;;;11.90;56.80;;;;;;4984199;28;20187;-64
2021/04/18 05:37:46;;;;;;;17.20;9.88;;;12.10;56.90;;;;;;4985236;28;20045;-65
2021/04/18 05:40:12;;;;;;;24.70;10.77;;;12.20;55.80;;;;;;4972347;28;20041;-65
2021/04/18 05:42:42;;;;;;;16.65;9.10;;;12.30;55.60;;;;;;4971313;28;20030;-64
2021/04/18 05:45:10;;;;;;;14.50;9.45;;;12.30;55.50;;;;;;4974133;28;20101;-65
2021/04/18 05:47:36;;;;;;;16.77;8.77;;;12.40;55.40;;;;;;4968798;28;20177;-64
2021/04/18 05:50:03;;;;;;;17.90;8.55;;;12.50;55.30;;;;;;4970735;28;20050;-65
2021/04/18 05:52:31;;;;;;;19.42;8.38;;;12.70;55.40;;;;;;4972579;28;20125;-65
2021/04/18 05:54:57;;;;;;;15.35;8.70;;;12.90;54.70;;;;;;4984088;28;20603;-65
2021/04/18 05:57:24;;;;;;;18.33;9.35;;;13.00;54.40;;;;;;4969862;28;20038;-65
2021/04/18 05:59:55;;;;;;;13.82;7.47;;;13.00;53.80;;;;;;4986132;28;20096;-66
2021/04/18 06:02:20;;;;;;;14.98;8.50;;;13.00;53.60;;;;;;4969185;28;20053;-65
2021/04/18 06:04:46;;;;;;;18.35;8.73;;;13.00;53.50;;;;;;4963992;28;20397;-65
2021/04/18 06:07:12;;;;;;;13.93;7.70;;;13.10;53.60;;;;;;4958089;28;20112;-64
2021/04/18 06:09:37;;;;;;;17.73;8.38;;;13.30;53.30;;;;;;4967681;28;20037;-64
2021/04/18 06:12:09;;;;;;;17.45;8.23;;;13.40;52.90;;;;;;4968035;28;20588;-65
2021/04/18 06:14:37;;;;;;;12.00;7.57;;;13.40;52.60;;;;;;4969669;28;20366;-65
2021/04/18 06:17:05;;;;;;;15.75;7.72;;;13.40;52.40;;;;;;4961483;28;20585;-64
2021/04/18 06:19:30;;;;;;;12.55;7.10;;;13.40;52.20;;;;;;4963225;28;20038;-64
2021/04/18 06:21:58;;;;;;;16.88;7.07;;;13.30;52.00;;;;;;4982137;28;21530;-63
2021/04/18 06:24:26;;;;;;;17.60;7.63;;;13.30;52.10;;;;;;4961361;28;20117;-63
2021/04/18 06:26:52;;;;;;;14.38;7.13;;;13.50;52.40;;;;;;4960125;28;20398;-65
2021/04/18 06:29:20;;;;;;;12.90;6.80;;;13.60;52.00;;;;;;4983216;28;20049;-64
2021/04/18 06:31:47;;;;;;;16.17;7.10;;;13.70;51.60;;;;;;4982846;28;20052;-65
2021/04/18 06:34:21;;;;;;;16.42;7.03;;;13.70;51.20;;;;;;4967184;28;20515;-65
2021/04/18 06:36:48;;;;;;;13.00;6.18;;;13.60;51.20;;;;;;4969748;28;20042;-65
2021/04/18 06:39:16;;;;;;;13.10;6.53;;;13.60;51.30;;;;;;4967454;28;20066;-64
2021/04/18 06:41:52;;;;;;;14.30;6.97;;;13.70;51.20;;;;;;4970537;28;20050;-65
2021/04/18 06:44:23;;;;;;;14.93;6.40;;;13.70;50.90;;;;;;4969484;28;21583;-64
2021/04/18 06:46:49;;;;;;;10.35;5.65;;;13.80;51.00;;;;;;4962373;28;20094;-64
2021/04/18 06:49:17;;;;;;;11.05;6.05;;;13.80;50.80;;;;;;4969691;28;20122;-64
2021/04/18 06:51:47;;;;;;;11.90;5.63;;;13.80;50.50;;;;;;4993255;28;20408;-64
2021/04/18 06:54:12;;;;;;;8.93;5.22;;;13.80;50.50;;;;;;4975348;28;20687;-65
2021/04/18 06:56:41;;;;;;;8.57;5.03;;;13.90;50.50;;;;;;4983498;28;20030;-64
2021/04/18 06:59:09;;;;;;;14.57;5.25;;;14.20;50.50;;;;;;4975919;28;20376;-65
2021/04/18 07:01:35;;;;;;;11.18;5.43;;;14.40;49.60;;;;;;4978348;28;20131;-64
2021/04/18 07:04:19;;;;;;;9.85;4.85;;;14.60;49.80;;;;;;4982694;28;20077;-65
2021/04/18 07:06:55;;;;;;;10.77;5.07;;;15.20;49.70;;;;;;4980699;28;20042;-65
2021/04/18 07:09:23;;;;;;;14.18;4.72;;;15.90;48.50;;;;;;4974539;28;20622;-65
2021/04/18 07:12:01;;;;;;;7.80;4.93;;;16.10;47.10;;;;;;4978332;28;20049;-64
2021/04/18 07:14:32;;;;;;;12.13;5.28;;;16.20;46.40;;;;;;4986622;28;20124;-65
2021/04/18 07:17:12;;;;;;;9.38;4.70;;;16.40;45.60;;;;;;4989697;28;20042;-64
2021/04/18 07:19:39;;;;;;;7.95;4.60;;;;;;;;;;4999554;28;20034;-66
2021/04/18 07:22:06;;;;;;;12.77;4.90;;;;;;;;;;4976065;28;20604;-65
2021/04/18 07:24:33;;;;;;;9.93;4.30;;;;;;;;;;4973382;28;20649;-65
2021/04/18 07:27:03;;;;;;;10.68;4.53;;;16.60;45.60;;;;;;4971923;28;20080;-65
2021/04/18 07:29:30;;;;;;;8.60;4.07;;;;;;;;;;4973915;28;20096;-65
2021/04/18 07:31:58;;;;;;;11.55;4.28;;;21.30;39.00;;;;;;4971800;28;20031;-65
2021/04/18 07:34:28;;;;;;;9.43;4.60;;;22.40;35.50;;;;;;4972431;28;20049;-65
2021/04/18 07:37:14;;;;;;;7.90;4.03;;;22.60;34.20;;;;;;4980605;28;20031;-65
2021/04/18 07:39:52;;;;;;;8.90;4.50;;;22.70;33.70;;;;;;4969830;28;20563;-65
2021/04/18 07:42:42;;;;;;;7.60;4.35;;;23.40;33.00;;;;;;4967370;28;20050;-65
2021/04/18 07:45:17;;;;;;;7.80;4.32;;;24.60;31.50;;;;;;4989133;28;20034;-64
2021/04/18 07:47:48;;;;;;;13.07;4.50;;;25.30;29.80;;;;;;4970048;28;20328;-64
2021/04/18 07:50:18;;;;;;;9.63;4.38;;;25.70;29.50;;;;;;4967863;28;20077;-65
2021/04/18 07:52:45;;;;;;;7.25;4.55;;;;;;;;;;4968264;28;20302;-65
2021/04/18 07:55:14;;;;;;;9.05;4.10;;;26.10;28.80;;;;;;4988063;28;20044;-65
2021/04/18 07:57:41;;;;;;;9.60;4.35;;;27.30;27.20;;;;;;4968413;28;20097;-65
2021/04/18 08:00:10;;;;;;;9.57;4.25;;;27.60;26.70;;;;;;4959907;28;20046;-65
2021/04/18 08:02:42;;;;;;;8.32;4.00;;;28.00;26.20;;;;;;4971468;28;20749;-65
2021/04/18 08:05:10;;;;;;;7.65;3.95;;;28.50;25.20;;;;;;4974482;28;21189;-65
2021/04/18 08:07:58;;;;;;;8.60;4.60;;;28.80;24.70;;;;;;4969379;28;20103;-65
2021/04/18 08:10:25;;;;;;;8.60;3.85;;;;;;;;;;4969681;28;20038;-65
2021/04/18 08:13:21;;;;;;;7.57;3.70;;;;;;;;;;4963285;28;20034;-65
2021/04/18 08:15:46;;;;;;;7.78;4.28;;;;;;;;;;4956222;28;20591;-66
2021/04/18 08:18:14;;;;;;;6.65;4.15;;;;;;;;;;4960800;28;20046;-66
2021/04/18 08:20:43;;;;;;;7.00;3.80;;;;;;;;;;4965704;28;20042;-65
2021/04/18 08:23:13;;;;;;;5.45;3.88;;;;;;;;;;4959950;28;20042;-66
2021/04/18 08:25:59;;;;;;;6.43;3.60;;;;;;;;;;4966097;28;20053;-66
2021/04/18 08:28:25;;;;;;;9.25;3.88;;;;;;;;;;4958083;28;20047;-66
2021/04/18 08:31:07;;;;;;;8.38;4.00;;;;;;;;;;4967699;28;20042;-65
2021/04/18 08:33:38;;;;;;;10.93;3.72;;;29.20;24.50;;;;;;4969823;28;20049;-65
2021/04/18 08:36:17;;;;;;;7.63;4.13;;;33.60;20.90;;;;;;4965961;28;20045;-65
2021/04/18 08:38:46;;;;;;;9.57;3.63;;;;;;;;;;4979445;28;20046;-65
2021/04/18 08:41:17;;;;;;;6.55;3.63;;;33.60;20.70;;;;;;4967643;28;20039;-66
2021/04/18 08:43:47;;;;;;;6.88;3.33;;;33.60;20.10;;;;;;4959318;28;20294;-66
2021/04/18 08:46:20;;;;;;;6.78;3.60;;;33.50;20.30;;;;;;4961962;28;20047;-66
2021/04/18 08:48:45;;;;;;;5.00;3.42;;;33.50;20.30;;;;;;4955808;28;20277;-65
2021/04/18 08:51:11;;;;;;;8.93;3.78;;;33.50;20.30;;;;;;4966082;28;20392;-66
2021/04/18 08:53:56;;;;;;;11.80;4.10;;;33.50;20.00;;;;;;4978471;28;20054;-65
2021/04/18 08:56:42;;;;;;;11.00;4.57;;;33.50;20.50;;;;;;4964443;28;20507;-65
2021/04/18 08:59:12;;;;;;;7.57;3.47;;;33.40;20.00;;;;;;4957187;28;20043;-66
2021/04/18 09:01:58;;;;;;;7.60;3.58;;;33.20;20.30;;;;;;4956413;28;20129;-66
2021/04/18 09:04:23;;;;;;;6.82;3.05;;;33.20;20.50;;;;;;4966048;28;20532;-66
2021/04/18 09:06:49;;;;;;;6.95;3.03;;;33.30;20.20;;;;;;4965064;28;20145;-65
2021/04/18 09:09:15;;;;;;;13.68;3.90;;;33.30;20.50;;;;;;4963991;28;20058;-66
2021/04/18 09:11:43;;;;;;;6.18;3.50;;;33.40;19.70;;;;;;4958975;28;20039;-66
2021/04/18 09:14:11;;;;;;;7.15;3.25;;;33.00;19.80;;;;;;4962365;28;20532;-66
2021/04/18 09:16:40;;;;;;;9.73;3.40;;;32.80;20.80;;;;;;4965661;28;20070;-66
2021/04/18 09:19:24;;;;;;;6.43;3.08;;;;;;;;;;4979580;28;20084;-66
2021/04/18 09:22:09;;;;;;;5.93;3.25;;;;;;;;;;4979414;28;20095;-66
2021/04/18 09:24:39;;;;;;;4.57;2.80;;;;;;;;;;4982709;28;20349;-66
2021/04/18 09:27:16;;;;;;;4.38;3.17;;;33.10;20.10;;;;;;4949994;28;20089;-65
2021/04/18 09:29:47;;;;;;;8.40;3.20;;;;;;;;;;4962733;28;20678;-66
2021/04/18 09:32:14;;;;;;;6.30;3.00;;;;;;;;;;4956086;28;20094;-66
2021/04/18 09:34:41;;;;;;;6.45;3.42;;;;;;;;;;4960291;28;20034;-65
2021/04/18 09:37:09;;;;;;;8.30;3.80;;;;;;;;;;4964188;28;20492;-65
2021/04/18 09:39:36;;;;;;;10.00;2.92;;;;;;;;;;4970638;28;20046;-65
2021/04/18 09:42:05;;;;;;;6.05;3.65;;;;;;;;;;4978732;28;20061;-66
2021/04/18 09:44:37;;;;;;;6.85;2.75;;;34.50;19.10;;;;;;4974049;28;20471;-66
2021/04/18 09:47:05;;;;;;;6.80;3.53;;;34.00;19.70;;;;;;4959345;28;20226;-65
2021/04/18 09:49:48;;;;;;;6.47;3.20;;;34.00;19.60;;;;;;4980409;28;20165;-66
2021/04/18 09:52:27;;;;;;;6.03;3.25;;;34.20;19.80;;;;;;4968357;28;20046;-66
2021/04/18 09:54:53;;;;;;;6.63;3.00;;;34.30;19.30;;;;;;4958218;28;20325;-65
2021/04/18 09:57:27;;;;;;;4.75;3.08;;;34.30;19.70;;;;;;4961720;28;20053;-65
2021/04/18 10:00:20;;;;;;;6.47;3.35;;;34.40;19.40;;;;;;4953164;28;20057;-65
2021/04/18 10:03:13;;;;;;;4.90;3.08;;;34.30;19.60;;;;;;4954549;28;20072;-66
2021/04/18 10:05:47;;;;;;;4.47;3.10;;;34.50;19.70;;;;;;4969031;28;20046;-67
2021/04/18 10:08:17;;;;;;;6.28;3.13;;;;;;;;;;4968876;28;20439;-66
2021/04/18 10:10:43;;;;;;;5.53;3.20;;;;;;;;;;4969015;28;20149;-66
2021/04/18 10:13:10;;;;;;;7.20;3.28;;;;;;;;;;4966337;28;20042;-66
2021/04/18 10:15:50;;;;;;;4.72;2.78;;;34.70;19.50;;;;;;4965617;28;20345;-66
2021/04/18 10:18:21;;;;;;;6.78;3.17;;;34.20;19.00;;;;;;4960019;28;20595;-66
2021/04/18 10:20:48;;;;;;;7.57;3.50;;;33.30;19.60;;;;;;4969097;28;20141;-66
2021/04/18 10:23:14;;;;;;;6.22;3.33;;;32.50;20.70;;;;;;4969434;28;20154;-72
2021/04/18 10:25:40;;;;;;;6.18;3.45;;;32.30;21.00;;;;;;4972248;28;20070;-67
2021/04/18 10:28:09;;;;;;;7.00;3.47;;;32.30;21.40;;;;;;4970725;28;20065;-67
2021/04/18 10:30:38;;;;;;;4.75;3.40;;;32.40;20.50;;;;;;4965327;28;23857;-67
2021/04/18 10:33:06;;;;;;;11.05;3.55;;;32.40;19.80;;;;;;4965432;28;20290;-67
2021/04/18 10:35:32;;;;;;;7.55;3.63;;;32.40;20.60;;;;;;4960961;28;20090;-67
2021/04/18 10:37:58;;;;;;;7.88;3.63;;;32.50;20.60;;;;;;4962928;28;20424;-67
2021/04/18 10:40:27;;;;;;;5.47;3.72;;;32.70;20.70;;;;;;4961817;28;20045;-66
2021/04/18 10:42:55;;;;;;;7.60;3.70;;;32.90;20.00;;;;;;4963155;28;20401;-66
2021/04/18 10:45:20;;;;;;;12.30;3.97;;;32.60;20.40;;;;;;4981823;28;20038;-66
2021/04/18 10:47:46;;;;;;;7.45;4.30;;;32.40;21.20;;;;;;4971115;28;20423;-66
2021/04/18 10:50:12;;;;;;;6.93;3.80;;;32.40;20.60;;;;;;4969318;28;20174;-67
2021/04/18 10:52:40;;;;;;;10.02;4.03;;;32.20;20.90;;;;;;4972471;28;20043;-67
2021/04/18 10:55:06;;;;;;;9.43;4.35;;;32.30;20.70;;;;;;4968696;28;20258;-66
2021/04/18 10:57:34;;;;;;;7.07;4.10;;;32.10;21.30;;;;;;4970945;28;20042;-66
2021/04/18 10:59:59;;;;;;;5.45;3.42;;;31.80;21.70;;;;;;4968837;28;20696;-67
2021/04/18 11:02:28;;;;;;;5.53;3.83;;;;;;;;;;4967394;28;20046;-66
2021/04/18 11:04:56;;;;;;;6.63;4.00;;;31.40;21.70;;;;;;4972360;28;20046;-67
2021/04/18 11:07:23;;;;;;;6.65;3.78;;;30.40;23.30;;;;;;4967416;28;20046;-66
2021/04/18 11:09:49;;;;;;;7.28;3.83;;;30.40;23.10;;;;;;4972328;28;20041;-67
2021/04/18 11:12:22;;;;;;;7.97;4.25;;;30.60;22.40;;;;;;4968961;28;20043;-66
2021/04/18 11:14:48;;;;;;;7.47;3.85;;;30.50;22.20;;;;;;4971185;28;20541;-66
2021/04/18 11:17:16;;;;;;;7.90;4.47;;;30.40;23.00;;;;;;4971949;28;20038;-66
2021/04/18 11:19:42;;;;;;;6.95;4.70;;;30.50;22.80;;;;;;4968224;28;20096;-66
2021/04/18 11:22:10;;;;;;;5.95;4.18;;;30.60;23.10;;;;;;4970424;28;20049;-66
2021/04/18 11:24:39;;;;;;;5.45;3.80;;;30.70;23.60;;;;;;4964384;28;20046;-65
2021/04/18 11:27:05;;;;;;;6.97;3.47;;;30.80;23.40;;;;;;4964682;28;20539;-67
2021/04/18 11:29:30;;;;;;;8.07;4.50;;;30.70;23.50;;;;;;4969378;28;20050;-66
2021/04/18 11:31:58;;;;;;;10.05;4.60;;;30.20;23.90;;;;;;4969618;28;20120;-66
2021/04/18 11:34:24;;;;;;;13.50;5.00;;;29.80;23.60;;;;;;4960448;28;20077;-65
2021/04/18 11:36:50;;;;;;;8.55;4.65;;;;;;;;;;4965716;28;20452;-66
2021/04/18 11:39:18;;;;;;;8.52;4.32;;;29.40;23.90;;;;;;4969282;28;20420;-67
2021/04/18 11:41:46;;;;;;;11.63;4.82;;;28.50;25.00;;;;;;4959472;28;20196;-65
2021/04/18 11:44:15;;;;;;;5.32;4.03;;;;;;;;;;4963846;28;20046;-65
2021/04/18 11:46:45;;;;;;;5.90;4.50;;;28.10;25.30;;;;;;4969922;28;20049;-65
2021/04/18 11:49:14;;;;;;;10.05;4.93;;;27.70;25.40;;;;;;4972096;28;20464;-65
2021/04/18 11:51:41;;;;;;;6.88;4.47;;;27.50;26.40;;;;;;4964605;28;20173;-65
2021/04/18 11:54:08;;;;;;;9.73;5.20;;;27.50;26.30;;;;;;4966194;28;20072;-66
2021/04/18 11:56:35;;;;;;;11.57;5.10;;;27.40;25.70;;;;;;4970087;28;20107;-65
2021/04/18 11:59:01;;;;;;;9.75;4.13;;;27.30;25.90;;;;;;4965695;28;20052;-65
2021/04/18 12:01:27;;;;;;;9.43;4.32;;;27.10;26.80;;;;;;4970223;28;20034;-65
2021/04/18 12:03:55;;;;;;;8.98;4.65;;;27.10;26.70;;;;;;4970903;28;20077;-66
2021/04/18 12:06:23;;;;;;;8.18;4.72;;;26.90;26.30;;;;;;4957776;28;20077;-66
2021/04/18 12:08:49;;;;;;;6.13;4.03;;;26.80;27.00;;;;;;4956614;28;20870;-65
2021/04/18 12:11:14;;;;;;;10.05;4.32;;;26.70;27.20;;;;;;4955635;28;20511;-66
2021/04/18 12:13:40;;;;;;;9.13;4.35;;;26.50;26.70;;;;;;4955609;28;20125;-65
2021/04/18 12:16:06;;;;;;;6.80;4.35;;;26.10;27.60;;;;;;4954111;28;21272;-66
2021/04/18 12:18:34;;;;;;;5.80;3.95;;;25.90;27.60;;;;;;4953358;28;20404;-66
2021/04/18 12:21:01;;;;;;;6.75;4.32;;;25.70;28.20;;;;;;4949345;28;20105;-65
2021/04/18 12:23:27;;;;;;;6.85;4.32;;;25.60;28.40;;;;;;4955085;28;20744;-65
2021/04/18 12:25:56;;;;;;;7.45;4.80;;;25.50;28.70;;;;;;4951039;28;20625;-65
2021/04/18 12:28:25;;;;;;;9.48;4.82;;;25.50;28.70;;;;;;4956256;28;20050;-65
2021/04/18 12:30:50;;;;;;;9.75;4.55;;;25.50;28.90;;;;;;4966371;28;20077;-66
2021/04/18 12:33:18;;;;;;;7.53;4.53;;;25.40;28.60;;;;;;4969197;28;20475;-66
2021/04/18 12:35:44;;;;;;;8.63;4.63;;;25.20;29.40;;;;;;4956580;28;20218;-65
2021/04/18 12:38:09;;;;;;;10.82;4.93;;;25.20;29.40;;;;;;4958471;28;20405;-66
2021/04/18 12:40:37;;;;;;;12.23;5.20;;;25.30;29.40;;;;;;4958096;28;20043;-66
2021/04/18 12:43:03;;;;;;;8.15;5.13;;;25.30;29.90;;;;;;4964729;28;20559;-65
2021/04/18 12:45:31;;;;;;;9.23;5.15;;;25.40;29.70;;;;;;4962963;28;20137;-66
2021/04/18 12:47:57;;;;;;;10.23;4.70;;;25.50;29.50;;;;;;4955580;28;20042;-66
2021/04/18 12:50:25;;;;;;;10.25;4.68;;;25.30;29.80;;;;;;4964158;28;20432;-66
2021/04/18 12:52:53;;;;;;;9.13;4.25;;;25.30;29.80;;;;;;4964806;28;20116;-66
2021/04/18 12:55:21;;;;;;;7.18;4.53;;;25.20;29.60;;;;;;4961765;28;20053;-66
2021/04/18 12:57:51;;;;;;;7.95;4.47;;;25.20;29.90;;;;;;4961829;28;20583;-66